Startpagina
METAR-TAF:

METAR-TAF

Vliegvelden :

Manizales, Colombia

breedte: 05-01-48N, lengte: 075-27-50W, hoogte: 2063 m

Actueel weer

Dit bericht is 8 uur en het 45 minuten geleden gemaakt, om 23:00 UTC
Weinig wind
Temperatuur 16°C
Vochtigheid 94%
Druk 1025 hPa
Zicht: 7000 m
Gebroken wolken op 4000 ft, Stapelwolken.
mist in de omgeving

METAR: SKMZ 202300Z 00000KT 7000 VCFG BKN040TCU 16/15 A3028 RMK TCU/N/W

Tijdstip: 02:45 (07:45 UTC)


TAF: ontbreekt

Waarnemingen en weersverwachtingen van meer dan 4000 vliegvelden (METAR en TAF).

De beschikbare stations zijn de gele en rode punten op de kaart.

Ga met uw muis naar het station om de naam te zien.

Klik dan om waarnemingen en weersverwachtingen te zien.

kaart wijzigen: klik op de groene knoppen met een zwart kruis om in te zoomen, op de groene knop met een streepje om uit te zoomen of op de groene pijlen voor aangrenzende kaarten.


METAR-TAF: